Time;durP1;ratioP1;P1;durP2;ratioP2;P2;SDS_P1;SDS_P2;PMS_P1;PMS_P2;Temp;Humidity;BMP_temperature;BMP_pressure;BME280_temperature;BME280_humidity;BME280_pressure;Samples;Min_cycle;Max_cycle;Signal;HPM_P1;HPM_P2
2022/04/25 00:00:04;;;;;;;7.68;2.55;;;;;;;9.64;42.57;99597.78;5063769;28;20048;-80
2022/04/25 00:02:38;;;;;;;7.68;2.80;;;;;;;9.72;42.51;99612.28;5097386;28;20039;-81
2022/04/25 00:05:04;;;;;;;12.70;2.67;;;;;;;9.62;42.64;99594.34;5064001;28;20405;-81
2022/04/25 00:07:30;;;;;;;6.43;2.60;;;;;;;9.63;42.87;99606.75;5115308;28;20040;-81
2022/04/25 00:09:56;;;;;;;6.05;2.58;;;;;;;9.59;43.10;99610.59;5097127;28;20074;-80
2022/04/25 00:12:22;;;;;;;5.22;2.60;;;;;;;9.53;43.50;99609.22;5063443;28;20436;-81
2022/04/25 00:14:48;;;;;;;8.60;2.75;;;;;;;9.35;43.75;99606.03;5080178;28;20401;-81
2022/04/25 00:17:13;;;;;;;5.65;2.78;;;;;;;9.38;43.75;99610.31;5097421;28;20039;-81
2022/04/25 00:19:40;;;;;;;6.40;2.40;;;;;;;9.36;44.07;99614.91;5063363;28;20040;-80
2022/04/25 00:22:06;;;;;;;3.75;2.80;;;;;;;9.26;44.48;99608.53;5079912;28;20046;-80
2022/04/25 00:24:32;;;;;;;5.30;2.40;;;;;;;9.33;44.26;99613.31;5080037;28;20035;-80
2022/04/25 00:26:58;;;;;;;4.50;2.60;;;;;;;9.32;44.28;99616.06;5063581;28;20051;-80
2022/04/25 00:29:24;;;;;;;5.72;2.30;;;;;;;9.24;44.56;99608.63;5078985;28;20059;-81
2022/04/25 00:31:49;;;;;;;3.72;2.53;;;;;;;9.13;44.88;99617.38;5063804;28;20042;-81
2022/04/25 00:34:16;;;;;;;4.18;3.03;;;;;;;9.13;44.92;99614.69;5079923;28;20035;-81
2022/04/25 00:36:41;;;;;;;2.53;2.15;;;;;;;9.18;44.77;99614.41;5079944;28;20045;-81
2022/04/25 00:39:07;;;;;;;4.07;2.28;;;;;;;9.09;45.68;99613.22;5096735;28;20047;-81
2022/04/25 00:41:33;;;;;;;5.43;2.50;;;;;;;8.95;45.52;99622.19;5096820;28;20075;-81
2022/04/25 00:43:59;;;;;;;3.55;2.22;;;;;;;8.79;46.77;99605.50;5096091;28;20035;-81
2022/04/25 00:46:26;;;;;;;11.73;2.72;;;;;;;8.76;46.27;99608.38;5096687;28;20055;-80
2022/04/25 00:48:53;;;;;;;5.95;2.60;;;;;;;8.88;46.75;99620.91;5079696;28;20036;-80
2022/04/25 00:51:19;;;;;;;9.52;2.80;;;;;;;9.06;46.09;99625.91;5079351;28;20089;-80
2022/04/25 00:53:47;;;;;;;6.15;2.58;;;;;;;9.01;47.12;99615.56;5096391;28;20047;-81
2022/04/25 00:56:15;;;;;;;5.25;2.60;;;;;;;8.97;47.10;99614.91;5079284;28;20040;-81
2022/04/25 00:58:46;;;;;;;2.88;2.63;;;;;;;8.96;47.16;99626.53;5096511;28;20043;-80
2022/04/25 01:01:13;;;;;;;5.43;3.17;;;;;;;8.92;47.52;99608.22;5096202;28;20135;-81
2022/04/25 01:03:39;;;;;;;3.30;2.63;;;;;;;9.02;47.83;99621.75;5079116;28;20075;-81
2022/04/25 01:06:05;;;;;;;7.20;2.72;;;;;;;8.97;48.15;99625.59;5079141;28;20074;-81
2022/04/25 01:08:34;;;;;;;6.07;2.40;;;;;;;9.03;47.75;99610.09;5079113;28;20543;-82
2022/04/25 01:11:06;;;;;;;18.70;3.40;;;;;;;9.17;47.77;99628.66;5113952;28;20156;-81
2022/04/25 01:13:32;;;;;;;7.55;2.85;;;;;;;9.27;47.58;99624.41;5079436;28;20062;-81
2022/04/25 01:15:59;;;;;;;5.03;3.10;;;;;;;9.31;47.53;99620.56;5095900;28;20043;-81
2022/04/25 01:18:24;;;;;;;11.15;3.05;;;;;;;9.38;47.58;99623.66;5096123;28;20070;-81
2022/04/25 01:20:55;;;;;;;6.50;2.83;;;;;;;9.45;47.19;99620.44;5114055;28;20498;-81
2022/04/25 01:28:52;;;;;;;4.82;3.00;;;;;;;9.59;47.60;99626.59;5095830;28;20077;-80
2022/04/25 01:31:18;;;;;;;18.85;3.55;;;;;;;9.54;48.17;99634.09;5095986;28;20184;-83
2022/04/25 01:33:45;;;;;;;10.57;3.97;;;;;;;9.65;47.68;99631.50;5099229;28;20043;-80
2022/04/25 01:36:12;;;;;;;5.68;3.15;;;;;;;9.73;47.89;99626.47;5079325;28;20050;-82
2022/04/25 01:38:37;;;;;;;7.15;3.03;;;;;;;9.75;48.05;99632.56;5062910;28;20040;-80
2022/04/25 01:41:03;;;;;;;5.70;3.20;;;;;;;9.79;47.92;99633.19;5078639;28;20047;-80
2022/04/25 01:43:29;;;;;;;13.07;3.08;;;;;;;9.88;47.83;99633.38;5095635;28;20172;-81
2022/04/25 01:45:55;;;;;;;8.05;3.85;;;;;;;9.96;47.81;99630.13;5095473;28;20120;-80
2022/04/25 01:48:21;;;;;;;6.15;2.92;;;;;;;9.95;48.00;99626.63;5095709;28;20501;-80
2022/04/25 01:50:49;;;;;;;8.73;3.30;;;;;;;10.07;47.93;99637.38;5113584;28;20076;-80
2022/04/25 01:53:15;;;;;;;10.05;3.78;;;;;;;10.17;47.80;99627.72;5095518;28;20134;-81
2022/04/25 01:55:42;;;;;;;9.75;3.55;;;;;;;10.26;47.67;99628.88;5095407;28;20048;-80
2022/04/25 01:58:08;;;;;;;13.95;3.80;;;;;;;10.22;47.64;99615.72;5095197;28;20046;-80
2022/04/25 02:00:34;;;;;;;14.75;5.03;;;;;;;10.35;47.49;99631.75;5095037;28;20069;-81
2022/04/25 02:03:02;;;;;;;7.65;3.85;;;;;;;10.39;47.68;99633.22;5078626;28;20040;-82
2022/04/25 02:05:27;;;;;;;10.60;4.55;;;;;;;10.39;47.85;99633.22;5061650;28;20135;-80
2022/04/25 02:07:53;;;;;;;8.05;4.30;;;;;;;10.45;47.67;99639.91;5061822;28;20501;-82
2022/04/25 02:10:19;;;;;;;10.23;4.45;;;;;;;10.54;47.64;99630.38;5094991;28;20537;-81
2022/04/25 02:12:45;;;;;;;8.10;4.10;;;;;;;10.53;47.67;99624.19;5081964;28;20069;-81
2022/04/25 02:15:13;;;;;;;12.73;4.05;;;;;;;10.61;47.46;99620.94;5111855;28;20036;-82
2022/04/25 02:17:42;;;;;;;13.23;4.88;;;;;;;10.76;47.76;99635.78;5095395;28;20039;-82
2022/04/25 02:20:09;;;;;;;14.57;4.85;;;;;;;10.79;47.24;99635.53;5095038;28;20044;-81
2022/04/25 02:22:35;;;;;;;9.68;4.43;;;;;;;10.89;47.59;99631.19;5094907;28;20043;-82
2022/04/25 02:25:01;;;;;;;13.68;4.55;;;;;;;10.84;47.31;99611.16;5077633;28;20039;-82
2022/04/25 02:27:28;;;;;;;20.50;5.03;;;;;;;10.85;48.04;99616.34;5078509;28;20122;-81
2022/04/25 02:29:58;;;;;;;21.00;4.72;;;;;;;10.96;47.27;99620.03;5122275;28;20070;-81
2022/04/25 02:32:24;;;;;;;;;;;;;;;11.13;47.37;99627.59;5094913;28;20501;-79
2022/04/25 02:34:54;;;;;;;27.02;4.40;;;;;;;11.19;46.89;99632.47;5077196;28;19919;-81
2022/04/25 02:37:20;;;;;;;8.85;4.05;;;;;;;11.27;47.14;99631.88;5112671;28;20045;-81
2022/04/25 02:39:47;;;;;;;12.32;5.18;;;;;;;11.22;47.34;99616.19;5094421;28;20044;-81
2022/04/25 02:42:13;;;;;;;16.92;4.45;;;;;;;11.27;47.45;99634.56;5077706;28;20046;-82
2022/04/25 02:44:39;;;;;;;16.80;5.53;;;;;;;11.30;47.39;99635.16;5060724;28;20047;-82
2022/04/25 02:47:05;;;;;;;17.95;6.20;;;;;;;11.38;47.37;99627.38;5095634;28;20047;-85
2022/04/25 02:49:31;;;;;;;21.13;5.60;;;;;;;11.52;47.16;99633.47;5078115;28;20088;-82
2022/04/25 02:51:57;;;;;;;21.17;5.55;;;;;;;11.50;46.88;99614.00;5078972;28;20042;-81
2022/04/25 02:54:23;;;;;;;25.38;5.70;;;;;;;11.61;46.67;99620.19;5080892;28;20046;-81
2022/04/25 02:56:50;;;;;;;14.00;5.40;;;;;;;11.78;46.66;99632.25;5067175;28;20039;-81
2022/04/25 02:59:15;;;;;;;18.58;5.80;;;;;;;11.90;46.81;99633.13;5082170;28;20524;-81
2022/04/25 03:01:42;;;;;;;16.10;5.88;;;;;;;11.96;46.46;99631.75;5098598;28;20043;-86
2022/04/25 03:04:08;;;;;;;22.90;5.68;;;;;;;12.08;46.47;99630.78;5081820;28;20517;-82
2022/04/25 03:06:34;;;;;;;19.17;4.97;;;;;;;12.12;46.69;99624.19;5099770;28;20039;-85
2022/04/25 03:09:01;;;;;;;15.43;5.00;;;;;;;12.21;46.46;99620.75;5066079;28;20046;-84
2022/04/25 03:11:26;;;;;;;19.65;5.68;;;;;;;12.30;46.64;99613.78;5117949;28;20183;-84
2022/04/25 03:13:52;;;;;;;16.63;5.35;;;;;;;12.37;46.38;99612.28;5098946;28;20127;-85
2022/04/25 03:16:19;;;;;;;38.50;5.93;;;;;;;12.45;46.38;99620.56;5098976;28;20036;-82
2022/04/25 03:18:46;;;;;;;22.70;4.63;;;;;;;12.63;46.27;99620.81;5100731;27;20051;-87
2022/04/25 03:21:13;;;;;;;24.63;5.20;;;;;;;12.81;45.94;99623.78;5107065;28;20044;-80
2022/04/25 03:23:39;;;;;;;15.95;5.68;;;;;;;12.78;45.79;99614.16;5081358;28;20476;-82
2022/04/25 03:26:06;;;;;;;17.52;5.13;;;;;;;12.94;45.92;99618.22;5116545;28;20059;-82
2022/04/25 03:28:32;;;;;;;14.75;5.05;;;;;;;12.95;45.71;99609.22;5098535;28;20051;-80
2022/04/25 03:30:58;;;;;;;24.98;5.47;;;;;;;13.08;45.86;99625.94;5081114;28;20043;-82
2022/04/25 03:33:31;;;;;;;22.77;4.82;;;;;;;13.16;46.82;99626.13;5097758;28;20046;-77
2022/04/25 03:35:57;;;;;;;19.52;5.13;;;;;;;13.28;46.07;99626.97;5115996;28;20035;-80
2022/04/25 03:38:23;;;;;;;12.32;4.82;;;;;;;13.22;46.10;99616.72;5098026;28;20039;-92
2022/04/25 03:40:49;;;;;;;20.98;4.95;;;;;;;13.10;46.10;99613.25;5064090;28;20508;-80
2022/04/25 03:43:17;;;;;;;9.15;3.92;;;;;;;13.27;45.75;99609.13;5097786;28;20486;-81
2022/04/25 03:45:43;;;;;;;14.85;4.57;;;;;;;13.44;45.50;99618.41;5100310;28;20156;-88
2022/04/25 03:48:09;;;;;;;8.57;3.75;;;;;;;13.47;45.60;99618.16;5080547;28;20074;-80
2022/04/25 03:50:35;;;;;;;10.45;3.45;;;;;;;13.64;45.50;99622.88;5080616;28;20482;-82
2022/04/25 03:53:09;;;;;;;9.80;3.25;;;;;;;13.83;45.19;99628.31;5123904;27;20047;-85
2022/04/25 03:58:21;;;;;;;10.23;2.92;;;;;;;14.05;44.12;99621.88;5101662;27;20404;-83
2022/04/25 04:00:48;;;;;;;5.57;2.60;;;;;;;14.02;44.03;99615.91;5101131;27;20114;-78
2022/04/25 04:03:15;;;;;;;10.23;2.38;;;;;;;13.98;44.34;99609.13;5117570;27;20088;-77
2022/04/25 04:05:42;;;;;;;8.95;2.38;;;;;;;14.13;44.25;99615.78;5100443;27;20386;-77
2022/04/25 04:08:09;;;;;;;7.25;2.40;;;;;;;14.23;44.12;99610.44;5100691;27;20035;-80
2022/04/25 04:10:35;;;;;;;12.90;2.67;;;;;;;14.31;44.17;99608.75;5100484;27;20154;-77
2022/04/25 04:13:01;;;;;;;10.98;2.47;;;;;;;14.07;44.31;99603.78;5100030;27;20039;-79
2022/04/25 04:15:27;;;;;;;7.10;2.10;;;;;;;14.26;44.17;99608.31;5135947;27;20092;-78
2022/04/25 04:17:53;;;;;;;9.40;2.00;;;;;;;14.29;44.02;99602.69;5100341;27;20047;-77
2022/04/25 04:20:19;;;;;;;12.07;2.10;;;;;;;14.44;43.85;99607.63;5100300;27;20131;-78
2022/04/25 04:22:45;;;;;;;11.52;2.88;;;;;;;14.69;43.76;99606.25;5117535;27;20046;-80
2022/04/25 04:25:15;;;;;;;12.07;2.60;;;;;;;14.81;43.87;99605.94;5100371;27;20046;-81
2022/04/25 04:27:43;;;;;;;12.10;2.92;;;;;;;15.00;43.19;99606.91;5100687;27;20046;-80
2022/04/25 04:30:13;;;;;;;24.15;3.20;;;;;;;15.35;43.05;99614.34;5117174;27;20134;-80
2022/04/25 04:32:40;;;;;;;4.53;2.63;;;;;;;15.72;42.42;99598.22;5083295;27;20078;-80
2022/04/25 04:35:11;;;;;;;8.60;2.10;;;;;;;15.95;41.95;99603.19;5100204;27;20043;-80
2022/04/25 04:37:38;;;;;;;6.20;2.10;;;;;;;16.15;41.34;99588.56;5100262;27;20136;-80
2022/04/25 04:42:54;;;;;;;8.98;2.10;;;;;;;16.53;40.26;99602.78;5099836;27;20119;-80
2022/04/25 04:45:23;;;;;;;4.65;1.67;;;;;;;16.62;40.12;99601.00;5082694;27;20039;-81
2022/04/25 04:47:49;;;;;;;4.88;1.70;;;;;;;16.60;39.81;99586.81;5083010;27;20039;-82
2022/04/25 04:50:16;;;;;;;6.35;1.85;;;;;;;16.81;39.57;99591.91;5099690;27;20053;-82
2022/04/25 04:52:49;;;;;;;10.60;2.22;;;;;;;16.77;39.68;99604.00;5116905;27;20039;-80
2022/04/25 04:55:15;;;;;;;6.18;1.98;;;;;;;16.76;39.72;99592.38;5116714;27;20047;-80
2022/04/25 04:57:42;;;;;;;8.80;1.95;;;;;;;16.90;39.40;99581.03;5099514;27;20491;-83
2022/04/25 05:00:10;;;;;;;6.68;2.08;;;;;;;17.24;39.33;99591.88;5134322;27;20074;-81
2022/04/25 05:02:36;;;;;;;4.78;2.20;;;;;;;17.58;38.58;99582.09;5082675;27;20047;-80
2022/04/25 05:05:04;;;;;;;8.80;2.22;;;;;;;17.92;38.56;99582.09;5116338;27;20115;-82
2022/04/25 05:07:30;;;;;;;13.77;2.33;;;;;;;18.19;37.69;99573.72;5116445;27;20039;-80
2022/04/25 05:09:56;;;;;;;10.48;2.15;;;;;;;18.39;37.45;99581.50;5116518;27;20061;-81
2022/04/25 05:12:22;;;;;;;7.00;2.10;;;;;;;18.43;36.99;99582.91;5099563;27;20063;-80
2022/04/25 05:14:48;;;;;;;6.18;1.88;;;;;;;18.62;37.00;99582.56;5115688;27;20401;-79
2022/04/25 05:17:14;;;;;;;8.05;2.30;;;;;;;18.67;36.86;99552.28;5099606;27;20457;-79
2022/04/25 05:19:40;;;;;;;14.98;2.72;;;;;;;18.88;36.48;99568.03;5099167;27;20050;-79
2022/04/25 05:22:06;;;;;;;5.28;1.80;;;;;;;18.92;36.15;99569.41;5135197;27;20100;-79
2022/04/25 05:24:32;;;;;;;13.90;2.13;;;;;;;18.98;36.16;99566.00;5099639;27;20039;-78
2022/04/25 05:26:58;;;;;;;16.45;2.20;;;;;;;19.04;35.95;99569.88;5082342;27;20088;-78
2022/04/25 05:29:24;;;;;;;11.25;2.00;;;;;;;18.96;36.13;99570.75;5098728;27;20445;-79
2022/04/25 05:31:50;;;;;;;12.95;2.80;;;;;;;18.88;36.24;99570.72;5116492;27;20138;-79
2022/04/25 05:34:16;;;;;;;12.20;2.15;;;;;;;18.84;36.59;99561.25;5098745;27;20085;-79
2022/04/25 05:36:42;;;;;;;10.90;2.63;;;;;;;18.90;36.19;99574.13;5116242;27;20454;-80
2022/04/25 05:39:09;;;;;;;5.22;1.80;;;;;;;18.99;36.38;99583.94;5098610;27;20085;-79
2022/04/25 05:41:45;;;;;;;19.00;2.13;;;;;;;19.11;36.46;99598.00;5081666;27;20078;-79
2022/04/25 05:44:11;;;;;;;17.02;2.53;;;;;;;18.32;37.58;99591.34;5116144;27;20497;-78
2022/04/25 05:46:37;;;;;;;2.75;1.75;;;;;;;18.08;38.14;99592.97;5116044;27;20039;-78
2022/04/25 05:52:02;;;;;;;11.27;1.85;;;;;;;18.18;38.08;99601.78;5098316;27;20035;-79
2022/04/25 05:54:32;;;;;;;6.45;1.73;;;;;;;18.28;38.23;99595.38;5116087;28;20042;-79
2022/04/25 05:56:58;;;;;;;3.67;1.60;;;;;;;18.46;37.70;99593.38;5115615;27;20095;-79
2022/04/25 05:59:24;;;;;;;4.53;1.67;;;;;;;18.52;37.40;99581.03;5115594;27;20047;-80
2022/04/25 06:01:49;;;;;;;7.63;1.70;;;;;;;18.51;37.47;99584.78;5098474;28;20035;-80
2022/04/25 06:04:16;;;;;;;3.10;1.45;;;;;;;18.45;37.82;99588.97;5115201;28;20054;-79
2022/04/25 06:06:42;;;;;;;4.20;1.70;;;;;;;18.72;37.14;99587.84;5115642;28;20359;-80
2022/04/25 06:09:08;;;;;;;11.30;1.75;;;;;;;18.92;37.02;99588.38;5115531;28;20058;-79
2022/04/25 06:11:33;;;;;;;7.40;1.73;;;;;;;18.97;37.00;99577.00;5133721;28;20494;-80
2022/04/25 06:14:02;;;;;;;5.88;1.60;;;;;;;19.07;36.75;99585.78;5133506;28;20036;-78
2022/04/25 06:16:28;;;;;;;4.75;1.80;;;;;;;19.07;36.60;99580.34;5133799;28;20039;-79
2022/04/25 06:18:54;;;;;;;2.53;1.50;;;;;;;19.09;36.60;99592.72;5133911;28;20107;-81
2022/04/25 06:21:19;;;;;;;4.53;1.70;;;;;;;19.12;36.99;99589.69;5081838;28;20541;-80
2022/04/25 06:23:45;;;;;;;6.40;1.58;;;;;;;18.93;36.98;99584.63;5115755;28;20046;-79
2022/04/25 06:26:11;;;;;;;3.17;1.98;;;;;;;19.04;36.93;99592.41;5100234;27;20077;-79
2022/04/25 06:28:37;;;;;;;4.68;2.17;;;;;;;18.92;36.91;99593.78;5085687;27;20043;-80
2022/04/25 06:31:03;;;;;;;12.05;2.10;;;;;;;18.73;37.28;99591.38;5103088;27;20039;-79
2022/04/25 06:33:29;;;;;;;4.40;1.60;;;;;;;18.57;37.59;99589.50;5102848;27;20066;-79
2022/04/25 06:35:55;;;;;;;5.10;2.00;;;;;;;18.45;38.00;99595.22;5119576;27;20410;-79
2022/04/25 06:38:21;;;;;;;7.47;2.08;;;;;;;18.29;38.43;99581.69;5085634;27;20515;-80
2022/04/25 06:40:47;;;;;;;13.38;1.90;;;;;;;18.23;38.72;99592.31;5103226;27;20042;-80
2022/04/25 06:43:16;;;;;;;6.38;1.60;;;;;;;18.16;38.77;99571.31;5119829;27;20566;-81
2022/04/25 06:45:43;;;;;;;5.70;2.17;;;;;;;18.06;39.18;99595.00;5119546;27;20409;-79
2022/04/25 06:48:09;;;;;;;11.85;1.98;;;;;;;18.01;39.72;99583.81;5137845;27;20043;-78
2022/04/25 06:50:35;;;;;;;2.55;1.95;;;;;;;18.09;39.75;99581.16;5102046;27;20182;-80
2022/04/25 06:53:01;;;;;;;5.80;1.83;;;;;;;18.20;39.83;99588.94;5137633;27;20451;-79
2022/04/25 06:55:28;;;;;;;4.25;1.80;;;;;;;18.26;40.19;99589.28;5119516;27;20390;-80
2022/04/25 06:57:54;;;;;;;11.10;3.05;;;;;;;18.19;41.15;99598.06;5118590;27;20039;-79
2022/04/25 07:00:22;;;;;;;3.80;1.88;;;;;;;18.18;41.21;99596.38;5136891;27;20046;-78
2022/04/25 07:02:49;;;;;;;9.57;1.80;;;;;;;17.90;41.48;99587.69;5102542;27;20039;-79
2022/04/25 07:05:14;;;;;;;4.07;1.67;;;;;;;17.98;41.87;99592.28;5136956;27;20039;-80
2022/04/25 07:07:40;;;;;;;5.07;2.25;;;;;;;18.01;41.56;99589.22;5119646;27;20058;-77
2022/04/25 07:10:07;;;;;;;3.15;1.63;;;;;;;17.94;41.37;99594.47;5118914;27;20157;-80
2022/04/25 07:12:33;;;;;;;1.95;1.58;;;;;;;17.71;41.32;99582.47;5084895;27;20095;-80
2022/04/25 07:14:59;;;;;;;7.15;1.95;;;;;;;17.73;41.01;99597.53;5101462;27;20046;-79
2022/04/25 07:17:26;;;;;;;5.45;2.13;;;;;;;17.82;40.98;99593.03;5137000;27;20040;-79
2022/04/25 07:19:52;;;;;;;5.93;1.90;;;;;;;18.03;40.24;99592.63;5137490;27;20070;-78
2022/04/25 07:30:34;;;;;;;5.25;2.13;;;;;;;18.48;39.53;99575.13;5101914;27;20043;-79
2022/04/25 07:33:01;;;;;;;9.15;2.70;;;;;;;18.90;38.47;99574.13;5118196;27;20089;-80
2022/04/25 07:35:27;;;;;;;7.28;1.60;;;;;;;19.08;38.52;99576.66;5136661;27;20388;-80
2022/04/25 07:37:55;;;;;;;8.88;1.70;;;;;;;19.28;38.02;99571.69;5100630;27;20049;-79
2022/04/25 07:40:24;;;;;;;7.13;1.88;;;;;;;19.42;38.03;99558.28;5083646;27;20047;-79
2022/04/25 07:42:50;;;;;;;6.18;1.90;;;;;;;19.76;37.51;99550.88;5118110;27;20035;-78
2022/04/25 07:45:16;;;;;;;19.15;2.30;;;;;;;20.00;36.34;99567.03;5117905;27;20049;-79
2022/04/25 07:47:45;;;;;;;11.25;2.75;;;;;;;19.95;36.30;99561.31;5136556;27;20122;-80
2022/04/25 07:50:12;;;;;;;12.38;2.65;;;;;;;19.60;36.39;99560.75;5136274;27;20046;-78
2022/04/25 07:52:38;;;;;;;11.57;2.53;;;;;;;19.72;36.23;99563.13;5083747;27;20075;-78
2022/04/25 07:55:06;;;;;;;10.73;2.80;;;;;;;20.04;36.32;99557.50;5117848;27;20042;-78
2022/04/25 07:57:33;;;;;;;5.03;1.90;;;;;;;20.48;35.79;99554.16;5083984;27;20042;-78
2022/04/25 07:59:59;;;;;;;8.65;2.28;;;;;;;20.68;34.59;99549.09;5117527;27;20139;-78
2022/04/25 08:02:25;;;;;;;6.40;1.70;;;;;;;20.98;34.24;99550.03;5083627;27;20105;-79
2022/04/25 08:04:51;;;;;;;10.63;1.90;;;;;;;21.09;33.75;99546.00;5136054;27;20050;-79
2022/04/25 08:07:17;;;;;;;14.38;2.10;;;;;;;21.17;34.27;99545.06;5117616;27;20043;-78
2022/04/25 08:09:43;;;;;;;6.32;2.10;;;;;;;21.26;33.90;99536.66;5100282;27;20053;-79
2022/04/25 08:20:24;;;;;;;30.15;2.90;;;;;;;20.56;35.19;99528.84;5118094;27;20137;-78
2022/04/25 08:22:50;;;;;;;7.80;2.30;;;;;;;20.33;35.80;99539.69;5100501;27;20133;-78
2022/04/25 08:25:18;;;;;;;6.78;2.00;;;;;;;20.40;35.69;99534.38;5117168;27;20463;-79
2022/04/25 08:27:44;;;;;;;7.28;1.98;;;;;;;20.63;35.56;99526.25;5099947;27;20043;-79
2022/04/25 08:30:12;;;;;;;5.70;2.28;;;;;;;20.88;35.66;99522.28;5116962;27;20035;-79
2022/04/25 08:32:38;;;;;;;7.10;1.95;;;;;;;20.98;35.55;99511.13;5116804;27;20053;-79
2022/04/25 08:35:05;;;;;;;7.32;2.00;;;;;;;21.33;34.58;99515.88;5100860;27;20047;-78
2022/04/25 08:37:30;;;;;;;7.57;2.22;;;;;;;21.37;34.12;99502.75;5135031;27;20051;-79
2022/04/25 08:39:56;;;;;;;4.30;2.35;;;;;;;21.27;34.01;99516.59;5117233;27;20091;-79
2022/04/25 08:42:22;;;;;;;7.10;2.80;;;;;;;21.39;33.65;99511.56;5099742;27;20439;-79
2022/04/25 08:44:52;;;;;;;12.05;2.70;;;;;;;21.39;33.74;99513.44;5117084;27;20074;-80
2022/04/25 08:47:20;;;;;;;12.02;2.17;;;;;;;21.56;33.43;99510.34;5116601;27;20441;-80
2022/04/25 08:49:46;;;;;;;3.08;2.00;;;;;;;21.42;34.01;99507.63;5098920;27;20053;-79
2022/04/25 08:52:12;;;;;;;8.43;2.15;;;;;;;21.27;33.64;99510.31;5116482;27;20122;-79
2022/04/25 08:54:38;;;;;;;11.82;2.17;;;;;;;21.29;34.25;99521.84;5099349;27;20094;-78
2022/04/25 08:57:05;;;;;;;30.27;2.83;;;;;;;21.51;34.90;99523.66;5116202;27;20063;-79
2022/04/25 08:59:32;;;;;;;35.33;2.78;;;;;;;21.69;34.41;99514.25;5115965;27;20039;-78
2022/04/25 09:01:58;;;;;;;13.88;1.65;;;;;;;21.34;34.54;99514.84;5134754;27;20054;-79
2022/04/25 09:04:24;;;;;;;15.07;1.80;;;;;;;21.41;34.75;99522.25;5099331;27;20047;-79
2022/04/25 09:06:51;;;;;;;9.70;1.85;;;;;;;21.40;34.86;99521.41;5082684;27;20050;-79
2022/04/25 09:09:18;;;;;;;23.63;2.20;;;;;;;21.19;34.86;99518.56;5099763;27;20371;-79
2022/04/25 09:14:31;;;;;;;12.18;1.80;;;;;;;20.87;35.50;99509.72;5098813;27;20066;-80
2022/04/25 09:16:57;;;;;;;6.60;1.50;;;;;;;20.41;36.14;99515.19;5116056;27;20051;-80
2022/04/25 09:19:23;;;;;;;10.45;1.80;;;;;;;20.22;36.07;99527.38;5134801;27;20115;-79
2022/04/25 09:21:49;;;;;;;8.63;1.70;;;;;;;20.02;36.21;99515.31;5116012;27;20482;-78
2022/04/25 09:24:23;;;;;;;3.85;1.50;;;;;;;19.70;36.86;99535.31;5099366;27;20051;-80
2022/04/25 09:27:19;;;;;;;15.35;2.45;;;;;;;19.06;37.66;99538.88;5082392;27;20047;-80
2022/04/25 09:29:48;;;;;;;8.23;1.60;;;;;;;18.80;38.22;99528.25;5099507;27;20043;-80
2022/04/25 09:32:16;;;;;;;13.10;1.92;;;;;;;18.61;38.95;99536.69;5134603;27;20050;-80
2022/04/25 09:35:04;;;;;;;13.52;1.90;;;;;;;18.58;39.38;99532.50;5133992;27;20043;-79
2022/04/25 09:37:47;;;;;;;6.63;1.58;;;;;;;18.51;39.37;99520.66;5098977;27;20042;-79
2022/04/25 09:40:18;;;;;;;4.90;1.48;;;;;;;18.62;39.37;99531.13;5115812;27;20532;-79
2022/04/25 09:42:46;;;;;;;5.40;1.75;;;;;;;18.74;39.09;99530.81;5134785;27;20095;-79
2022/04/25 09:45:12;;;;;;;12.00;1.80;;;;;;;18.59;39.21;99534.19;5115909;27;20043;-79
2022/04/25 09:47:38;;;;;;;11.38;1.92;;;;;;;18.67;39.18;99531.47;5115733;27;20043;-79
2022/04/25 09:50:10;;;;;;;6.63;1.45;;;;;;;18.81;39.00;99527.25;5098810;27;20132;-79
2022/04/25 09:52:53;;;;;;;2.13;1.25;;;;;;;19.37;38.00;99528.13;5115540;27;20115;-79
2022/04/25 09:55:21;;;;;;;6.57;1.50;;;;;;;19.59;37.56;99523.78;5115920;27;20035;-80
2022/04/25 09:57:49;;;;;;;7.15;1.35;;;;;;;19.86;36.91;99529.81;5115739;28;20043;-79
2022/04/25 10:00:33;;;;;;;5.22;1.77;;;;;;;20.24;36.25;99514.47;5133202;27;20074;-78
2022/04/25 10:03:08;;;;;;;28.73;3.35;;;;;;;20.58;35.49;99519.50;5134097;27;20050;-77
2022/04/25 10:05:45;;;;;;;7.07;2.05;;;;;;;20.76;34.91;99502.88;5133922;27;20053;-78
2022/04/25 10:08:13;;;;;;;20.50;2.67;;;;;;;21.06;34.51;99511.91;5115820;28;20058;-79
2022/04/25 10:10:46;;;;;;;22.83;2.75;;;;;;;21.13;34.00;99505.72;5115080;28;20071;-79
2022/04/25 10:13:13;;;;;;;47.33;2.97;;;;;;;21.14;34.24;99510.09;5081715;28;20039;-80
2022/04/25 10:15:41;;;;;;;7.30;2.20;;;;;;;20.87;34.57;99504.28;5115753;28;20039;-79
2022/04/25 10:18:07;;;;;;;10.18;2.20;;;;;;;20.55;35.31;99511.72;5098140;28;20054;-79
2022/04/25 10:20:36;;;;;;;13.88;1.75;;;;;;;19.94;36.36;99518.09;5098452;28;20047;-78
2022/04/25 10:23:05;;;;;;;8.82;1.65;;;;;;;19.50;37.38;99505.88;5098711;28;20046;-79
2022/04/25 10:25:32;;;;;;;17.27;1.80;;;;;;;19.22;37.84;99507.34;5081317;28;20039;-79
2022/04/25 10:28:01;;;;;;;10.63;1.70;;;;;;;19.26;37.86;99508.72;5081668;28;20035;-80
2022/04/25 10:30:33;;;;;;;;;;;;;;;19.14;38.20;99513.63;5099091;28;20385;-79
2022/04/25 10:33:22;;;;;;;10.00;2.00;;;;;;;19.32;37.84;99514.25;5098727;28;20400;-78
2022/04/25 10:35:50;;;;;;;13.68;2.00;;;;;;;19.54;37.73;99500.97;5098070;28;20089;-79
2022/04/25 10:38:48;;;;;;;8.30;2.40;;;;;;;19.83;37.10;99497.63;5133606;28;20039;-80
2022/04/25 10:44:34;;;;;;;14.25;1.92;;;;;;;19.72;37.20;99503.44;5133847;28;20047;-79
2022/04/25 10:47:04;;;;;;;45.53;4.10;;;;;;;19.74;36.98;99487.81;5133211;28;20043;-79
2022/04/25 10:49:31;;;;;;;18.40;2.00;;;;;;;19.88;36.73;99497.91;5097842;28;20043;-79
2022/04/25 10:51:57;;;;;;;16.88;2.10;;;;;;;20.07;36.48;99500.16;5115069;28;20084;-79
2022/04/25 10:54:27;;;;;;;60.50;4.28;;;;;;;20.22;36.66;99499.38;5098033;28;20065;-78
2022/04/25 10:57:05;;;;;;;15.43;1.80;;;;;;;20.05;36.61;99475.09;5133759;28;20039;-78
2022/04/25 10:59:31;;;;;;;14.70;2.58;;;;;;;19.91;36.61;99502.16;5098100;28;20046;-79
2022/04/25 11:01:57;;;;;;;18.05;2.15;;;;;;;19.83;37.46;99492.19;5097909;28;20096;-80
2022/04/25 11:04:24;;;;;;;7.93;1.70;;;;;;;19.67;38.03;99495.84;5098253;28;20042;-81
2022/04/25 11:07:24;;;;;;;10.65;2.00;;;;;;;19.77;37.55;99487.47;5115076;28;20050;-78
2022/04/25 11:09:51;;;;;;;2.78;1.60;;;;;;;19.72;38.26;99498.03;5080565;28;20047;-79
2022/04/25 11:12:17;;;;;;;10.38;1.73;;;;;;;20.13;38.19;99493.19;5133816;27;20047;-79
2022/04/25 11:15:02;;;;;;;15.48;1.70;;;;;;;21.23;36.29;99498.97;5101532;27;20054;-79
2022/04/25 11:17:30;;;;;;;10.48;1.60;;;;;;;21.31;35.99;99484.44;5102324;27;20423;-80
2022/04/25 11:19:56;;;;;;;10.77;1.60;;;;;;;21.22;35.62;99485.56;5118372;27;20043;-79
2022/04/25 11:22:41;;;;;;;7.60;1.70;;;;;;;21.13;35.24;99475.81;5118289;27;20045;-79
2022/04/25 11:25:25;;;;;;;29.10;2.65;;;;;;;20.88;35.71;99494.28;5118217;27;20039;-79
2022/04/25 11:28:05;;;;;;;24.13;2.03;;;;;;;20.72;35.75;99490.66;5118603;27;20136;-80
2022/04/25 11:30:31;;;;;;;12.98;2.15;;;;;;;20.72;35.94;99489.81;5118425;27;20383;-80
2022/04/25 11:33:12;;;;;;;10.32;2.40;;;;;;;20.44;36.62;99484.97;5101336;27;20046;-80
2022/04/25 11:35:41;;;;;;;12.50;1.90;;;;;;;20.92;35.85;99501.88;5118253;27;20075;-80
2022/04/25 11:38:07;;;;;;;8.98;1.70;;;;;;;20.98;35.38;99487.50;5136453;27;20043;-80
2022/04/25 11:40:34;;;;;;;8.77;1.70;;;;;;;20.81;35.32;99483.28;5101352;27;20042;-80
2022/04/25 11:43:03;;;;;;;10.20;2.05;;;;;;;22.33;33.40;99478.13;5136752;27;20047;-80
2022/04/25 11:45:30;;;;;;;22.00;2.13;;;;;;;23.86;31.03;99480.81;5136005;27;20035;-80
2022/04/25 11:47:57;;;;;;;20.40;2.28;;;;;;;24.49;29.38;99474.22;5117709;27;20051;-79
2022/04/25 11:50:23;;;;;;;10.98;1.60;;;;;;;23.57;29.94;99471.00;5136503;27;20122;-78
2022/04/25 11:52:52;;;;;;;10.05;1.35;;;;;;;22.74;31.23;99470.91;5117841;27;20463;-79
2022/04/25 11:55:30;;;;;;;10.07;1.85;;;;;;;22.51;31.82;99482.06;5100670;27;20039;-79
2022/04/25 11:57:56;;;;;;;13.70;1.85;;;;;;;22.92;31.81;99475.91;5136323;27;20046;-79
2022/04/25 12:00:22;;;;;;;16.20;2.00;;;;;;;24.08;30.12;99456.09;5117611;27;20047;-79
2022/04/25 12:02:48;;;;;;;6.85;1.90;;;;;;;25.05;28.75;99469.13;5083692;27;20038;-79
2022/04/25 12:05:28;;;;;;;11.80;1.77;;;;;;;25.27;27.87;99466.97;5100150;27;20050;-79
2022/04/25 12:16:08;;;;;;;6.95;1.75;;;;;;;21.75;32.11;99449.03;5097086;28;20043;-81
2022/04/25 12:18:34;;;;;;;8.73;1.65;;;;;;;21.60;32.68;99470.00;5115264;28;20138;-80